Time;durP1;ratioP1;P1;durP2;ratioP2;P2;SDS_P1;SDS_P2;PMS_P1;PMS_P2;Temp;Humidity;BMP_temperature;BMP_pressure;BME280_temperature;BME280_humidity;BME280_pressure;Samples;Min_cycle;Max_cycle;Signal;HPM_P1;HPM_P2
2023/07/05 00:00:49;;;;;;;531.83;503.33;;;15.60;89.30;;;;;;5011813;28;20317;-66
2023/07/05 00:03:17;;;;;;;506.70;480.27;;;15.50;88.20;;;;;;5002559;28;20182;-66
2023/07/05 00:05:44;;;;;;;479.30;454.73;;;15.60;88.30;;;;;;5009193;28;20627;-67
2023/07/05 00:08:11;;;;;;;434.30;412.17;;;15.70;88.00;;;;;;5010538;28;20236;-66
2023/07/05 00:10:39;;;;;;;366.27;348.17;;;15.80;87.60;;;;;;5010684;28;20189;-65
2023/07/05 00:13:06;;;;;;;366.17;348.17;;;15.80;87.10;;;;;;5009013;28;20197;-66
2023/07/05 00:15:33;;;;;;;324.00;308.30;;;15.90;87.10;;;;;;5007479;28;20186;-67
2023/07/05 00:18:01;;;;;;;241.63;229.50;;;16.00;86.60;;;;;;5005707;28;20181;-68
2023/07/05 00:20:29;;;;;;;213.73;202.87;;;16.00;85.70;;;;;;5003463;28;20301;-66
2023/07/05 00:22:56;;;;;;;183.93;174.33;;;16.00;85.50;;;;;;5011951;28;20659;-67
2023/07/05 00:25:25;;;;;;;186.10;176.10;;;16.00;85.40;;;;;;5007539;28;20212;-67
2023/07/05 00:27:52;;;;;;;161.70;152.97;;;16.00;86.20;;;;;;5010711;28;20227;-66
2023/07/05 00:30:20;;;;;;;160.87;152.27;;;16.20;85.80;;;;;;5010152;28;20702;-67
2023/07/05 00:32:47;;;;;;;140.10;132.50;;;16.30;85.70;;;;;;5009714;28;20523;-67
2023/07/05 00:35:14;;;;;;;121.43;114.73;;;16.40;85.40;;;;;;5008149;28;20232;-66
2023/07/05 00:37:42;;;;;;;99.17;93.57;;;16.50;84.70;;;;;;5010520;28;20658;-67
2023/07/05 00:40:10;;;;;;;86.43;81.37;;;16.70;84.30;;;;;;5006742;28;20266;-67
2023/07/05 00:42:38;;;;;;;80.37;75.70;;;16.70;83.50;;;;;;5003926;28;20181;-68
2023/07/05 00:45:11;;;;;;;75.73;71.30;;;16.80;83.90;;;;;;4992292;28;20209;-67
2023/07/05 00:47:43;;;;;;;66.50;62.53;;;16.90;83.90;;;;;;5009816;28;20705;-66
2023/07/05 00:50:39;;;;;;;56.50;52.97;;;16.80;83.40;;;;;;5006580;28;20716;-68
2023/07/05 00:53:08;;;;;;;59.97;56.33;;;16.70;83.40;;;;;;5007307;28;20175;-68
2023/07/05 00:55:38;;;;;;;59.60;56.00;;;16.80;83.80;;;;;;5005394;28;20543;-68
2023/07/05 00:58:05;;;;;;;50.90;47.50;;;16.90;83.90;;;;;;5007303;28;20176;-67
2023/07/05 01:00:33;;;;;;;36.30;33.90;;;17.10;83.40;;;;;;5006055;28;20187;-67
2023/07/05 01:03:05;;;;;;;32.10;30.03;;;17.30;81.80;;;;;;5006490;28;20187;-69
2023/07/05 01:05:33;;;;;;;27.07;25.13;;;17.40;81.90;;;;;;5008283;28;20583;-69
2023/07/05 01:08:03;;;;;;;23.20;21.50;;;17.40;81.10;;;;;;5003753;28;20282;-68
2023/07/05 01:10:30;;;;;;;22.13;20.40;;;17.30;81.40;;;;;;5009113;28;20212;-68
2023/07/05 01:13:09;;;;;;;19.90;18.40;;;17.30;81.60;;;;;;5006539;28;20184;-67
2023/07/05 01:15:51;;;;;;;17.73;16.57;;;17.40;81.10;;;;;;5002024;28;20249;-69
2023/07/05 01:18:25;;;;;;;14.90;13.70;;;17.70;80.70;;;;;;5008042;28;20187;-67
2023/07/05 01:21:19;;;;;;;9.47;8.70;;;17.90;79.90;;;;;;5006082;28;20180;-68
2023/07/05 01:24:16;;;;;;;9.03;7.87;;;18.30;76.90;;;;;;5004007;28;20181;-68
2023/07/05 01:26:56;;;;;;;6.40;5.80;;;18.90;76.60;;;;;;5007040;28;20200;-68
2023/07/05 01:29:50;;;;;;;8.57;5.30;;;19.10;74.20;;;;;;5007105;28;20235;-68
2023/07/05 01:32:40;;;;;;;7.20;4.53;;;19.50;73.90;;;;;;5003398;28;20189;-67
2023/07/05 01:35:25;;;;;;;4.57;3.73;;;19.60;72.10;;;;;;5008441;28;20225;-67
2023/07/05 01:37:53;;;;;;;8.30;3.93;;;19.70;71.60;;;;;;5001670;28;20197;-68
2023/07/05 01:40:26;;;;;;;5.87;3.83;;;19.80;72.70;;;;;;5002934;28;20181;-67
2023/07/05 01:43:01;;;;;;;4.70;3.40;;;19.80;70.80;;;;;;5001785;28;20189;-67
2023/07/05 01:45:32;;;;;;;5.37;3.30;;;19.70;71.10;;;;;;4994558;28;20184;-68
2023/07/05 01:48:10;;;;;;;4.03;2.80;;;19.70;70.90;;;;;;5006151;28;20236;-67
2023/07/05 01:50:55;;;;;;;2.80;2.53;;;19.80;70.80;;;;;;5008555;28;20181;-66
2023/07/05 01:53:32;;;;;;;4.17;2.70;;;20.00;70.00;;;;;;5004305;28;20636;-66
2023/07/05 01:56:11;;;;;;;5.53;2.80;;;20.10;69.40;;;;;;5006952;28;20193;-66
2023/07/05 01:58:45;;;;;;;4.37;2.60;;;20.20;69.80;;;;;;5006422;28;20189;-69
2023/07/05 02:01:16;;;;;;;4.57;3.20;;;20.40;69.00;;;;;;5003634;28;20268;-67
2023/07/05 02:03:45;;;;;;;3.93;2.73;;;20.60;67.50;;;;;;5009076;28;20332;-67
2023/07/05 02:06:14;;;;;;;4.07;2.53;;;20.80;67.80;;;;;;5005498;28;20177;-68
2023/07/05 02:08:44;;;;;;;3.00;2.40;;;21.00;67.40;;;;;;5003204;28;20276;-68
2023/07/05 02:11:12;;;;;;;3.33;2.10;;;20.90;66.30;;;;;;5003037;28;20185;-67
2023/07/05 02:13:39;;;;;;;4.73;2.27;;;21.00;65.70;;;;;;5007278;28;20189;-66
2023/07/05 02:16:06;;;;;;;3.37;2.33;;;20.90;65.50;;;;;;5006400;28;20185;-67
2023/07/05 02:18:34;;;;;;;3.40;2.17;;;21.10;66.40;;;;;;5002841;28;20225;-67
2023/07/05 02:21:01;;;;;;;4.53;2.13;;;21.30;65.20;;;;;;5010390;28;20188;-69
2023/07/05 02:23:28;;;;;;;2.50;1.50;;;21.20;63.60;;;;;;5006185;28;20190;-68
2023/07/05 02:26:04;;;;;;;2.43;1.60;;;21.10;63.80;;;;;;5006769;28;20177;-67
2023/07/05 02:28:32;;;;;;;3.60;1.53;;;21.00;64.50;;;;;;5008076;28;20280;-67
2023/07/05 02:31:06;;;;;;;3.37;1.53;;;21.00;63.90;;;;;;5009001;28;20181;-68
2023/07/05 02:33:37;;;;;;;2.97;1.23;;;21.10;64.30;;;;;;5006998;28;20193;-68
2023/07/05 02:36:12;;;;;;;2.80;1.40;;;21.30;63.60;;;;;;5005608;28;20219;-67
2023/07/05 02:38:41;;;;;;;3.10;1.30;;;21.50;62.80;;;;;;5002068;28;20729;-68
2023/07/05 02:41:09;;;;;;;2.73;1.50;;;21.70;61.70;;;;;;5003940;28;20185;-67
2023/07/05 02:43:37;;;;;;;1.67;1.30;;;21.80;61.30;;;;;;5007424;28;20182;-67
2023/07/05 02:46:07;;;;;;;1.63;1.20;;;21.80;60.20;;;;;;5007733;28;20193;-66
2023/07/05 02:48:34;;;;;;;4.73;1.40;;;21.70;60.60;;;;;;5002983;28;20280;-68
2023/07/05 02:51:02;;;;;;;3.77;1.40;;;21.90;60.30;;;;;;5008511;28;20189;-68
2023/07/05 02:53:29;;;;;;;2.30;1.30;;;21.80;60.00;;;;;;5006855;28;20188;-68
2023/07/05 02:55:57;;;;;;;2.50;1.17;;;21.80;60.30;;;;;;5006651;28;20178;-67
2023/07/05 02:58:24;;;;;;;3.27;1.50;;;21.80;60.70;;;;;;5006453;28;20195;-69
2023/07/05 03:00:51;;;;;;;1.83;0.97;;;21.90;61.20;;;;;;5004528;28;20295;-67
2023/07/05 03:03:20;;;;;;;1.57;1.10;;;21.80;58.40;;;;;;5003001;28;20212;-69
2023/07/05 03:06:01;;;;;;;0.97;0.87;;;21.80;58.80;;;;;;5000473;28;20585;-71
2023/07/05 03:08:30;;;;;;;0.70;0.70;;;21.80;57.90;;;;;;5001707;28;20221;-69
2023/07/05 03:11:00;;;;;;;1.27;0.70;;;21.60;57.60;;;;;;5003603;28;20236;-71
2023/07/05 03:13:31;;;;;;;1.33;0.93;;;21.70;57.60;;;;;;5004705;28;20629;-68
2023/07/05 03:15:59;;;;;;;1.77;0.70;;;21.70;57.20;;;;;;5007899;28;20169;-68
2023/07/05 03:18:27;;;;;;;1.43;0.80;;;21.60;56.90;;;;;;5003067;28;20198;-70
2023/07/05 03:20:55;;;;;;;1.43;0.83;;;21.80;56.90;;;;;;5001700;28;20185;-71
2023/07/05 03:23:23;;;;;;;4.43;1.00;;;21.80;56.90;;;;;;5007468;28;20178;-66
2023/07/05 03:25:58;;;;;;;1.17;0.93;;;21.60;55.80;;;;;;5009657;28;20189;-68
2023/07/05 03:28:29;;;;;;;1.33;0.80;;;21.50;56.70;;;;;;5008327;28;20258;-68
2023/07/05 03:31:02;;;;;;;2.07;0.90;;;21.40;56.80;;;;;;5006964;28;20186;-69
2023/07/05 03:33:31;;;;;;;2.33;1.10;;;21.70;55.80;;;;;;5010697;28;20188;-69
2023/07/05 03:36:03;;;;;;;3.13;1.00;;;21.80;55.50;;;;;;5012627;28;20221;-71
2023/07/05 03:38:32;;;;;;;1.27;1.03;;;22.10;55.20;;;;;;5005905;28;20213;-67
2023/07/05 03:41:01;;;;;;;1.20;1.10;;;22.20;54.30;;;;;;5011445;28;20272;-68
2023/07/05 03:43:32;;;;;;;1.47;1.03;;;22.50;54.20;;;;;;5007480;28;20224;-70
2023/07/05 03:46:00;;;;;;;0.83;0.80;;;22.70;53.40;;;;;;5005832;28;20715;-71
2023/07/05 03:48:39;;;;;;;2.50;1.10;;;23.10;53.00;;;;;;5003848;28;20213;-67
2023/07/05 03:51:09;;;;;;;5.23;1.00;;;23.30;52.80;;;;;;5008337;28;20193;-67
2023/07/05 03:53:37;;;;;;;3.53;1.13;;;23.30;52.10;;;;;;5006730;28;20264;-70
2023/07/05 03:56:07;;;;;;;2.50;1.40;;;23.00;52.70;;;;;;5002162;28;20243;-69
2023/07/05 03:58:35;;;;;;;1.67;1.13;;;23.30;52.40;;;;;;5005164;28;20212;-68
2023/07/05 04:01:14;;;;;;;1.87;1.40;;;23.70;51.90;;;;;;4989521;28;20186;-68
2023/07/05 04:03:46;;;;;;;2.57;1.00;;;23.60;51.60;;;;;;5010689;28;20291;-70
2023/07/05 04:06:14;;;;;;;4.47;1.50;;;24.30;49.80;;;;;;5008184;28;20216;-68
2023/07/05 04:08:41;;;;;;;2.10;1.37;;;23.30;52.30;;;;;;5008250;28;20240;-69
2023/07/05 04:11:09;;;;;;;1.23;1.13;;;22.40;54.90;;;;;;5010647;28;20177;-68
2023/07/05 04:13:37;;;;;;;3.33;1.30;;;21.90;56.50;;;;;;5007515;28;20186;-68
2023/07/05 04:16:10;;;;;;;1.67;1.30;;;21.40;56.50;;;;;;5005017;28;20247;-68
2023/07/05 04:18:38;;;;;;;1.83;1.40;;;21.30;58.50;;;;;;4992217;28;20215;-70
2023/07/05 04:21:06;;;;;;;2.60;1.10;;;21.80;58.40;;;;;;5006671;28;20651;-68
2023/07/05 04:23:34;;;;;;;1.60;1.20;;;22.80;53.90;;;;;;5008220;28;20709;-68
2023/07/05 04:26:08;;;;;;;1.20;1.10;;;22.80;53.70;;;;;;5004102;28;20190;-68
2023/07/05 04:28:38;;;;;;;3.70;1.00;;;22.00;54.60;;;;;;5007042;28;20299;-67
2023/07/05 04:31:10;;;;;;;1.10;1.00;;;21.80;56.00;;;;;;5010671;28;20284;-69
2023/07/05 04:33:38;;;;;;;2.50;1.20;;;21.40;57.30;;;;;;5008471;28;20627;-68
2023/07/05 04:36:06;;;;;;;1.53;1.00;;;21.30;58.00;;;;;;5011895;28;20367;-68
2023/07/05 04:38:33;;;;;;;1.43;0.93;;;21.20;58.70;;;;;;5005009;28;20251;-67
2023/07/05 04:41:01;;;;;;;0.83;0.80;;;21.50;58.50;;;;;;5008513;28;20261;-67
2023/07/05 04:43:29;;;;;;;2.83;0.80;;;22.30;55.00;;;;;;5004626;28;20300;-71
2023/07/05 04:45:58;;;;;;;2.47;0.90;;;23.00;53.20;;;;;;5005629;28;20700;-69
2023/07/05 04:48:28;;;;;;;1.07;0.80;;;23.60;51.90;;;;;;5008008;28;20210;-68
2023/07/05 04:50:57;;;;;;;3.33;0.60;;;23.80;50.60;;;;;;5006113;28;20190;-68
2023/07/05 04:53:27;;;;;;;0.93;0.77;;;23.80;49.60;;;;;;5004123;28;20655;-68
2023/07/05 04:55:57;;;;;;;1.97;0.90;;;23.50;51.30;;;;;;5006940;28;20710;-67
2023/07/05 04:58:25;;;;;;;2.60;0.70;;;24.00;50.30;;;;;;5004739;28;20189;-67
2023/07/05 05:00:59;;;;;;;0.60;0.57;;;24.00;49.90;;;;;;5007020;28;20182;-69
2023/07/05 05:03:26;;;;;;;0.80;0.70;;;24.20;49.10;;;;;;5004823;28;20618;-68
2023/07/05 05:05:55;;;;;;;0.90;0.77;;;23.70;50.20;;;;;;5002048;28;20678;-67
2023/07/05 05:08:24;;;;;;;2.30;0.50;;;23.80;49.90;;;;;;5001144;28;20667;-67
2023/07/05 05:10:58;;;;;;;0.60;0.60;;;24.30;48.80;;;;;;5010532;28;20283;-67
2023/07/05 05:13:26;;;;;;;0.70;0.50;;;24.30;47.60;;;;;;5003842;28;20188;-68
2023/07/05 05:15:54;;;;;;;2.77;0.60;;;24.10;48.90;;;;;;5010095;28;20173;-69
2023/07/05 05:18:23;;;;;;;1.07;0.60;;;24.60;47.60;;;;;;4990794;28;20185;-69
2023/07/05 05:20:51;;;;;;;0.73;0.53;;;24.80;47.00;;;;;;5009948;28;20531;-68
2023/07/05 05:23:18;;;;;;;0.50;0.50;;;24.80;47.10;;;;;;5003997;28;20201;-68
2023/07/05 05:25:47;;;;;;;0.53;0.47;;;24.10;47.40;;;;;;5007045;28;20186;-69
2023/07/05 05:28:15;;;;;;;0.63;0.50;;;23.90;47.30;;;;;;5004982;28;20572;-68
2023/07/05 05:30:44;;;;;;;1.27;0.67;;;24.00;47.30;;;;;;5006692;28;20182;-68
2023/07/05 05:33:13;;;;;;;0.40;0.40;;;24.60;46.10;;;;;;5006081;28;20177;-68
2023/07/05 05:35:45;;;;;;;0.50;0.50;;;24.30;46.20;;;;;;5010292;28;20234;-69
2023/07/05 05:38:12;;;;;;;0.50;0.50;;;24.40;46.40;;;;;;5003709;28;20241;-67
2023/07/05 05:40:40;;;;;;;2.43;0.40;;;24.20;46.90;;;;;;5008488;28;20565;-67
2023/07/05 05:43:07;;;;;;;2.20;0.70;;;23.80;48.40;;;;;;5003746;28;20221;-68
2023/07/05 05:45:35;;;;;;;0.90;0.90;;;23.70;49.40;;;;;;5008279;28;20651;-66
2023/07/05 05:48:02;;;;;;;0.70;0.70;;;24.00;48.40;;;;;;5008513;28;20197;-68
2023/07/05 05:50:30;;;;;;;0.73;0.70;;;24.10;48.40;;;;;;5005471;28;20711;-68
2023/07/05 05:52:58;;;;;;;0.90;0.70;;;24.00;48.80;;;;;;5008295;28;20682;-68
2023/07/05 05:55:25;;;;;;;1.50;0.67;;;24.00;48.30;;;;;;5006872;28;20537;-68
2023/07/05 05:57:53;;;;;;;0.90;0.70;;;24.20;48.00;;;;;;5007454;28;20188;-68
2023/07/05 06:00:21;;;;;;;3.03;0.67;;;24.60;47.50;;;;;;5001037;28;20548;-67
2023/07/05 06:02:48;;;;;;;5.03;0.60;;;23.70;48.60;;;;;;5007361;28;20264;-70
2023/07/05 06:05:17;;;;;;;1.47;0.93;;;22.50;51.50;;;;;;5007411;28;20609;-68
2023/07/05 06:07:44;;;;;;;0.77;0.60;;;21.80;53.60;;;;;;5007395;28;20235;-70
2023/07/05 06:10:12;;;;;;;3.17;1.00;;;21.30;55.30;;;;;;5006054;28;20181;-70
2023/07/05 06:12:41;;;;;;;0.87;0.80;;;21.00;56.90;;;;;;5008574;28;20757;-68
2023/07/05 06:15:11;;;;;;;1.93;0.73;;;20.70;57.40;;;;;;5009086;28;20231;-67
2023/07/05 06:17:38;;;;;;;1.00;0.90;;;20.40;58.60;;;;;;5010140;28;20940;-67
2023/07/05 06:20:06;;;;;;;1.40;0.80;;;20.30;59.20;;;;;;5003947;28;20188;-68
2023/07/05 06:22:37;;;;;;;1.20;1.07;;;20.30;59.70;;;;;;5008705;28;20194;-66
2023/07/05 06:25:05;;;;;;;1.07;0.97;;;20.10;60.50;;;;;;5009045;28;20381;-67
2023/07/05 06:27:34;;;;;;;1.27;0.97;;;20.00;61.10;;;;;;5006672;28;20184;-67
2023/07/05 06:30:02;;;;;;;1.73;1.10;;;20.00;61.70;;;;;;5008961;28;20193;-71
2023/07/05 06:32:29;;;;;;;1.40;1.10;;;19.90;62.40;;;;;;5005601;28;20240;-67
2023/07/05 06:34:57;;;;;;;1.60;1.00;;;19.80;62.80;;;;;;5002222;28;20272;-68
2023/07/05 06:37:24;;;;;;;2.50;1.47;;;19.70;63.30;;;;;;5006100;28;20598;-69
2023/07/05 06:39:51;;;;;;;1.33;1.10;;;19.60;63.80;;;;;;4984710;28;20613;-68
2023/07/05 06:42:19;;;;;;;1.67;1.00;;;19.50;63.60;;;;;;5006158;28;20531;-68
2023/07/05 06:44:46;;;;;;;3.30;1.30;;;19.50;64.10;;;;;;5002739;28;20189;-67
2023/07/05 06:47:13;;;;;;;1.63;1.20;;;19.30;63.90;;;;;;5006341;28;20547;-68
2023/07/05 06:49:41;;;;;;;1.43;1.00;;;19.30;64.20;;;;;;5006210;28;20323;-69
2023/07/05 06:52:08;;;;;;;1.00;0.90;;;19.30;63.70;;;;;;5008193;28;20217;-69
2023/07/05 06:54:36;;;;;;;3.50;1.00;;;19.30;63.90;;;;;;5003891;28;20665;-68
2023/07/05 06:57:03;;;;;;;2.00;1.00;;;19.20;63.20;;;;;;5006328;28;20227;-70
2023/07/05 06:59:32;;;;;;;1.53;0.93;;;19.30;63.60;;;;;;5000930;28;20189;-69
2023/07/05 07:01:59;;;;;;;1.30;0.80;;;19.20;63.00;;;;;;4991385;28;20194;-71
2023/07/05 07:04:27;;;;;;;1.27;0.80;;;19.20;62.50;;;;;;4999731;28;20217;-68
2023/07/05 07:06:54;;;;;;;0.93;0.70;;;19.10;61.70;;;;;;5007104;28;20220;-70
2023/07/05 07:09:22;;;;;;;1.30;1.00;;;19.10;61.40;;;;;;5005778;28;20567;-70
2023/07/05 07:11:49;;;;;;;1.57;1.00;;;19.10;61.10;;;;;;5004347;28;20196;-68
2023/07/05 07:14:16;;;;;;;1.20;0.90;;;19.10;61.70;;;;;;5008071;28;20225;-68
2023/07/05 07:16:43;;;;;;;1.30;0.77;;;19.00;61.50;;;;;;5001154;28;20449;-68
2023/07/05 07:19:11;;;;;;;1.17;0.80;;;19.00;61.20;;;;;;5005466;28;20190;-69
2023/07/05 07:21:38;;;;;;;1.27;0.70;;;18.90;60.80;;;;;;5008056;28;20335;-69
2023/07/05 07:24:06;;;;;;;0.60;0.60;;;18.90;61.20;;;;;;5008662;28;20191;-68
2023/07/05 07:26:34;;;;;;;1.77;0.97;;;18.90;61.30;;;;;;5004377;28;20669;-66
2023/07/05 07:29:01;;;;;;;1.53;0.70;;;18.80;61.40;;;;;;5003941;28;20676;-67
2023/07/05 07:31:31;;;;;;;1.10;0.80;;;18.80;61.30;;;;;;4990564;28;20189;-69
2023/07/05 07:34:04;;;;;;;1.33;0.90;;;18.80;61.30;;;;;;5002346;28;20272;-68
2023/07/05 07:36:33;;;;;;;1.67;0.80;;;18.80;61.40;;;;;;5001194;28;20301;-67
2023/07/05 07:39:00;;;;;;;1.10;0.90;;;18.70;61.50;;;;;;5005332;28;20232;-68
2023/07/05 07:41:31;;;;;;;3.43;0.83;;;18.70;61.20;;;;;;5000263;28;20189;-68
2023/07/05 07:44:04;;;;;;;1.07;0.80;;;18.60;61.70;;;;;;5002718;28;20648;-67
2023/07/05 07:46:33;;;;;;;2.20;0.83;;;18.60;61.90;;;;;;5007195;28;20181;-70
2023/07/05 07:49:01;;;;;;;1.77;0.80;;;18.50;61.80;;;;;;5006372;28;20213;-68
2023/07/05 07:51:32;;;;;;;1.10;1.00;;;18.40;62.00;;;;;;5003872;28;20189;-68
2023/07/05 07:54:01;;;;;;;1.77;0.77;;;18.30;62.30;;;;;;5004642;28;20180;-67
2023/07/05 07:56:28;;;;;;;1.23;0.90;;;18.30;62.30;;;;;;5005251;28;20534;-67
2023/07/05 07:58:58;;;;;;;1.87;1.03;;;18.20;62.90;;;;;;5005008;28;20276;-67
2023/07/05 08:01:32;;;;;;;2.00;1.20;;;18.10;63.30;;;;;;5004122;28;20211;-66
2023/07/05 08:04:02;;;;;;;1.73;1.03;;;18.00;63.70;;;;;;5005609;28;20647;-68
2023/07/05 08:06:36;;;;;;;1.03;0.80;;;18.00;63.50;;;;;;4993064;28;20522;-68
2023/07/05 08:09:06;;;;;;;1.40;1.00;;;18.00;63.70;;;;;;5010713;28;20252;-70
2023/07/05 08:11:34;;;;;;;2.30;1.00;;;17.90;63.90;;;;;;5006965;28;20195;-69
2023/07/05 08:14:02;;;;;;;1.50;1.13;;;17.90;64.30;;;;;;5010750;28;20630;-66
2023/07/05 08:16:30;;;;;;;1.67;1.10;;;17.80;64.30;;;;;;5009359;28;20207;-68
2023/07/05 08:18:57;;;;;;;1.53;1.13;;;17.80;64.60;;;;;;5006446;28;20235;-68
2023/07/05 08:21:25;;;;;;;4.13;1.70;;;17.80;64.60;;;;;;5009272;28;20212;-69
2023/07/05 08:23:52;;;;;;;2.53;1.77;;;17.90;64.70;;;;;;5008783;28;20185;-66
2023/07/05 08:26:21;;;;;;;2.93;2.07;;;17.90;64.70;;;;;;5006151;28;20597;-68
2023/07/05 08:28:48;;;;;;;4.50;1.87;;;17.90;65.00;;;;;;5001492;28;20209;-68
2023/07/05 08:31:16;;;;;;;5.47;2.07;;;17.90;64.50;;;;;;5006075;28;20188;-66
2023/07/05 08:33:44;;;;;;;4.13;1.40;;;17.90;64.90;;;;;;5008584;28;20189;-69
2023/07/05 08:36:40;;;;;;;2.17;1.17;;;18.00;65.20;;;;;;5008512;28;20220;-69
2023/07/05 08:39:08;;;;;;;5.97;1.60;;;18.00;65.60;;;;;;5009894;28;20240;-67
2023/07/05 08:41:42;;;;;;;3.73;1.50;;;17.90;66.00;;;;;;5004134;28;20245;-67
2023/07/05 08:44:21;;;;;;;3.23;1.70;;;17.90;66.30;;;;;;5008171;28;20181;-69
2023/07/05 08:47:03;;;;;;;2.90;2.50;;;17.90;66.10;;;;;;5008197;28;20181;-70
2023/07/05 08:49:59;;;;;;;5.07;2.73;;;17.80;66.10;;;;;;5006658;28;20303;-69
2023/07/05 08:52:44;;;;;;;4.50;2.93;;;17.80;66.50;;;;;;4999464;28;20192;-68
2023/07/05 08:55:19;;;;;;;5.10;2.70;;;17.80;66.70;;;;;;5010261;28;20185;-68
2023/07/05 08:57:55;;;;;;;3.00;2.07;;;17.80;65.90;;;;;;5003226;28;20188;-67
2023/07/05 09:00:32;;;;;;;2.47;1.77;;;17.80;64.70;;;;;;5006716;28;20658;-67
2023/07/05 09:03:00;;;;;;;1.53;1.37;;;17.80;64.10;;;;;;5003643;28;20182;-67
2023/07/05 09:05:44;;;;;;;1.60;1.20;;;17.80;63.90;;;;;;5008165;28;20189;-67
2023/07/05 09:08:48;;;;;;;1.57;1.30;;;17.80;64.00;;;;;;5008186;28;20204;-70
2023/07/05 09:11:25;;;;;;;2.73;1.63;;;17.80;64.20;;;;;;5007578;28;20522;-69
2023/07/05 09:14:08;;;;;;;3.97;1.90;;;17.80;64.40;;;;;;5006138;28;20181;-67
2023/07/05 09:16:59;;;;;;;2.73;2.00;;;17.70;64.90;;;;;;5002102;28;20237;-67
2023/07/05 09:19:51;;;;;;;4.00;1.90;;;17.70;65.40;;;;;;5008917;28;20268;-68
2023/07/05 09:22:25;;;;;;;3.40;2.10;;;17.60;66.00;;;;;;5007731;28;20189;-68
2023/07/05 09:24:53;;;;;;;2.57;1.90;;;17.60;66.20;;;;;;5007942;28;20188;-68
2023/07/05 09:27:32;;;;;;;2.77;1.80;;;17.50;66.60;;;;;;5008783;28;20251;-70
2023/07/05 09:30:13;;;;;;;6.10;2.00;;;17.50;67.10;;;;;;5010808;28;20213;-69
2023/07/05 09:32:43;;;;;;;2.97;1.97;;;17.40;66.90;;;;;;5009481;28;20188;-71
2023/07/05 09:35:23;;;;;;;2.70;1.97;;;17.40;67.10;;;;;;5005656;28;20958;-68
2023/07/05 09:38:23;;;;;;;2.57;1.87;;;17.40;67.20;;;;;;5006038;28;20189;-68
2023/07/05 09:41:17;;;;;;;3.03;1.80;;;17.30;66.90;;;;;;5000214;28;20264;-68
2023/07/05 09:43:44;;;;;;;2.47;1.70;;;17.30;67.00;;;;;;4993802;28;20229;-67
2023/07/05 09:46:28;;;;;;;2.73;1.77;;;17.30;66.80;;;;;;5006257;28;20589;-67
2023/07/05 09:48:57;;;;;;;4.23;2.07;;;17.30;66.80;;;;;;5008447;28;20218;-68
2023/07/05 09:51:25;;;;;;;3.57;2.03;;;17.30;67.50;;;;;;5004340;28;20242;-67
2023/07/05 09:54:03;;;;;;;2.80;2.13;;;17.30;67.80;;;;;;5002144;28;20177;-69
2023/07/05 09:56:30;;;;;;;2.63;1.60;;;17.30;67.80;;;;;;5004945;28;20188;-68
2023/07/05 09:59:20;;;;;;;2.40;1.80;;;17.20;67.80;;;;;;5003506;28;20225;-67
2023/07/05 10:02:08;;;;;;;3.90;1.90;;;17.20;68.10;;;;;;5005127;28;20301;-68
2023/07/05 10:04:45;;;;;;;2.47;1.50;;;17.10;67.70;;;;;;5006505;28;20192;-67
2023/07/05 10:07:23;;;;;;;5.50;1.60;;;17.00;67.30;;;;;;5003192;28;20215;-67
2023/07/05 10:10:03;;;;;;;5.00;2.00;;;17.00;67.40;;;;;;5009220;28;20303;-67
2023/07/05 10:12:37;;;;;;;3.67;1.93;;;17.00;67.70;;;;;;5001787;28;20211;-68
2023/07/05 10:15:21;;;;;;;2.67;2.07;;;16.90;68.10;;;;;;5009626;28;20190;-68
2023/07/05 10:17:52;;;;;;;2.70;1.93;;;16.90;68.30;;;;;;5006137;28;20579;-67
2023/07/05 10:20:38;;;;;;;2.57;1.40;;;16.80;68.50;;;;;;5006152;28;20292;-67
2023/07/05 10:23:15;;;;;;;2.43;1.70;;;16.80;69.00;;;;;;5008153;28;20239;-67
2023/07/05 10:25:43;;;;;;;1.77;1.40;;;16.80;69.20;;;;;;5004435;28;20639;-70
2023/07/05 10:28:19;;;;;;;2.07;1.20;;;16.70;69.30;;;;;;5010325;28;20212;-68
2023/07/05 10:30:50;;;;;;;1.97;1.30;;;16.60;68.20;;;;;;5009732;28;20193;-67
2023/07/05 10:33:25;;;;;;;1.47;1.33;;;16.60;68.60;;;;;;5008313;28;20190;-68
2023/07/05 10:36:02;;;;;;;2.90;1.50;;;16.60;68.90;;;;;;5008570;28;20235;-68
2023/07/05 10:38:33;;;;;;;4.80;1.70;;;16.50;69.30;;;;;;5007707;28;20260;-68
2023/07/05 10:41:20;;;;;;;2.63;1.60;;;16.30;69.40;;;;;;5004409;28;20177;-68
2023/07/05 10:44:04;;;;;;;1.60;1.30;;;16.30;69.50;;;;;;4999596;28;20205;-69
2023/07/05 10:46:34;;;;;;;1.77;1.30;;;16.30;69.50;;;;;;5004572;28;20218;-67
2023/07/05 10:49:05;;;;;;;3.40;1.60;;;16.30;69.60;;;;;;5006451;28;20223;-68
2023/07/05 10:51:37;;;;;;;2.70;1.93;;;16.30;69.90;;;;;;5008472;28;20186;-69
2023/07/05 10:54:17;;;;;;;3.97;1.70;;;16.20;70.80;;;;;;4999043;28;20192;-69
2023/07/05 10:56:46;;;;;;;3.90;2.10;;;16.10;71.10;;;;;;5005637;28;20224;-67
2023/07/05 10:59:25;;;;;;;4.47;2.00;;;15.90;71.50;;;;;;5008307;28;20212;-67
2023/07/05 11:02:25;;;;;;;2.43;1.73;;;15.80;72.00;;;;;;5005530;28;20192;-68
2023/07/05 11:04:54;;;;;;;2.80;1.77;;;15.70;72.40;;;;;;4995349;28;20200;-70
2023/07/05 11:07:23;;;;;;;2.90;2.10;;;15.70;72.50;;;;;;5001920;28;20189;-69
2023/07/05 11:09:51;;;;;;;2.30;1.60;;;15.70;72.60;;;;;;5005098;28;20220;-69
2023/07/05 11:12:29;;;;;;;3.20;1.83;;;15.60;72.90;;;;;;5003801;28;20183;-69
2023/07/05 11:14:58;;;;;;;2.63;1.80;;;15.60;73.20;;;;;;5005775;28;20280;-69
2023/07/05 11:17:34;;;;;;;1.97;1.60;;;15.60;73.20;;;;;;5005668;28;20173;-68
2023/07/05 11:20:06;;;;;;;3.23;2.10;;;15.50;73.20;;;;;;5005231;28;20678;-67
2023/07/05 11:22:46;;;;;;;2.63;1.87;;;15.50;73.40;;;;;;5003678;28;20191;-71
2023/07/05 11:25:18;;;;;;;2.60;1.97;;;15.40;73.40;;;;;;5008081;28;20187;-68
2023/07/05 11:27:59;;;;;;;2.23;1.53;;;15.30;73.50;;;;;;5005567;28;20169;-67
2023/07/05 11:30:46;;;;;;;1.53;1.33;;;15.30;73.80;;;;;;5008132;28;20189;-67
2023/07/05 11:33:16;;;;;;;2.17;1.60;;;15.20;73.80;;;;;;5002041;28;20189;-69
2023/07/05 11:35:49;;;;;;;2.10;1.60;;;15.20;73.80;;;;;;5001571;28;20236;-69
2023/07/05 11:38:40;;;;;;;1.87;1.40;;;15.20;73.90;;;;;;4990669;28;20186;-68
2023/07/05 11:41:28;;;;;;;1.87;1.33;;;15.10;73.70;;;;;;5000455;28;20177;-67
2023/07/05 11:44:01;;;;;;;3.33;1.30;;;15.00;73.70;;;;;;5010146;28;20541;-69
2023/07/05 11:46:44;;;;;;;1.77;1.40;;;15.00;73.70;;;;;;5002052;28;20189;-68
2023/07/05 11:49:29;;;;;;;1.43;1.17;;;15.00;73.60;;;;;;5009785;28;21975;-69
2023/07/05 11:52:07;;;;;;;1.70;1.43;;;14.90;73.70;;;;;;5008933;28;20177;-67
2023/07/05 11:55:33;;;;;;;1.70;1.30;;;14.90;73.60;;;;;;5003434;28;20279;-68
2023/07/05 11:58:27;;;;;;;1.80;1.40;;;14.80;73.80;;;;;;4950979;29;20195;-66
2023/07/05 12:01:02;;;;;;;1.60;1.50;;;14.80;74.50;;;;;;4948680;29;20191;-67
2023/07/05 12:03:40;;;;;;;4.03;1.43;;;14.80;74.90;;;;;;4993460;28;20265;-66
2023/07/05 12:06:17;;;;;;;2.43;1.60;;;14.70;75.20;;;;;;5012440;28;20181;-69
2023/07/05 12:08:49;;;;;;;2.23;1.73;;;14.70;75.50;;;;;;5008587;28;20565;-68
2023/07/05 12:11:29;;;;;;;2.60;2.10;;;14.60;75.80;;;;;;4999950;28;20695;-68
2023/07/05 12:14:09;;;;;;;2.43;1.97;;;14.60;75.90;;;;;;5010006;28;20185;-68
2023/07/05 12:16:37;;;;;;;3.63;2.27;;;14.60;76.10;;;;;;5011239;28;20181;-67
2023/07/05 12:19:07;;;;;;;2.80;1.83;;;14.60;76.20;;;;;;5008945;28;20181;-67
2023/07/05 12:21:35;;;;;;;3.63;2.00;;;14.50;76.30;;;;;;5011546;28;20185;-68
2023/07/05 12:24:07;;;;;;;2.20;1.70;;;14.50;76.60;;;;;;5008297;28;20188;-68
2023/07/05 12:26:36;;;;;;;7.23;2.20;;;14.40;76.30;;;;;;5003701;28;20178;-69
2023/07/05 12:29:29;;;;;;;5.07;2.50;;;14.30;76.50;;;;;;5007553;28;20589;-70
2023/07/05 12:32:15;;;;;;;3.50;2.30;;;14.30;76.60;;;;;;5001546;28;20601;-69
2023/07/05 12:34:44;;;;;;;2.97;2.20;;;14.30;76.80;;;;;;5009725;28;20335;-67
2023/07/05 12:37:11;;;;;;;3.90;1.87;;;14.30;76.60;;;;;;5010059;28;20652;-71
2023/07/05 12:39:41;;;;;;;2.93;1.80;;;14.30;76.40;;;;;;5007117;28;20232;-70
2023/07/05 12:42:14;;;;;;;3.83;2.10;;;14.30;76.60;;;;;;5008676;28;20182;-70
2023/07/05 12:44:42;;;;;;;5.10;2.00;;;14.20;76.40;;;;;;5009940;28;20272;-67
2023/07/05 12:47:17;;;;;;;5.93;1.80;;;14.20;76.40;;;;;;5009028;28;20548;-67
2023/07/05 12:49:45;;;;;;;2.13;1.80;;;14.20;76.40;;;;;;5008880;28;20239;-67
2023/07/05 12:52:19;;;;;;;4.20;1.97;;;14.20;76.40;;;;;;5010810;28;20181;-67
2023/07/05 12:54:47;;;;;;;2.30;1.83;;;14.10;76.60;;;;;;5005116;28;20220;-68
2023/07/05 12:57:25;;;;;;;5.43;2.00;;;14.10;76.80;;;;;;5004027;28;20206;-68
2023/07/05 12:59:54;;;;;;;3.30;2.03;;;14.00;76.80;;;;;;5005932;28;20242;-68
2023/07/05 13:02:29;;;;;;;3.47;2.03;;;14.00;76.90;;;;;;5005628;28;20192;-66
2023/07/05 13:04:58;;;;;;;4.00;1.87;;;13.90;77.10;;;;;;5002699;28;20271;-69
2023/07/05 13:07:26;;;;;;;2.60;2.00;;;13.90;77.50;;;;;;5006315;28;20517;-66
2023/07/05 13:10:02;;;;;;;4.73;2.07;;;13.80;77.50;;;;;;5007785;28;20806;-70